Kimberley Airport

Airport
ICAO code: 
FAKM
IATA Code: 
KIM
Summary
ICAO Region: 
AFI
Territory: 
Location: 
, Northern Cape
Serving: 
Kimberley
Elevation: 
3950 ft
Coordinates: 
Aerial View: 
28° 48' 10.202" S, 24° 45' 54.601" E
Metar
Observation
FAKM 291700Z 18006KT CAVOK 27/M02 Q1014
Station
Kimberley, Kim-Apt
Date/Time
2021-11-29 17:00:00
Wind direction
180°
Wind speed
06 kts
Lowest cloud amount
clouds and visibility OK
Temperature
27°C
Dew point
-2°C
Humidity
14%
QNH
1014 hPa
Weather condition
n/a

Runways

Designator Length Width Surface Rops
10/28 2439 45 ASP No/No
2/20 3000 46 ASP No/No
Airport map: 
Aerial View: 

Accidents and Serious Incidents at or in the vicinity of FAKM

SKYbrary Partners:

Safety knowledge contributed by: